USNN

Details ICAO USNN (NJC)
Name NIZHNEVARTOVSK
Region Russia
Timezone Asia/Yekaterinburg (UTC+5.0)
Plans Departing 42
Arriving 35
Stats Elevation 177 ft / 54 m (AMSL)
Location 60.949272° 76.483618°
Runways 1
Magnetic Variation 15.747° E
Sunrise 2018-05-22 21:52:37 UTC / 2018-05-23 02:52:37 Local
Sunset 2018-05-23 15:51:50 UTC / 2018-05-23 20:51:50 Local
Advertisement - Login to hide

Runways

ID Width Length Bearing (true) Bearing (mag) Surface Threshold Offset Overrun Length
03 197 ft / 60 m 10,417 ft / 3,175 m 42.34° 26.59° Asphalt 0 ft / 0 m 245 ft / 75 m
21 197 ft / 60 m 10,417 ft / 3,175 m 222.38° 206.63° Asphalt 0 ft / 0 m 245 ft / 75 m

Map

Weather


0- 5 10 15 20 25 30 35+ Temperature / ° C

Clouds and Precipitation
Forecast for 2018-05-23 18:00 UTC. Updated 23 minutes ago

Ground ~20,000 ft ~40,000 ft Winds

METAR

USNN 231730Z 29003MPS 9999 OVC041 02/M04 Q1017 R03/0///65 NOSIG RMK QFE758

TAF

TAF USNN 231402Z 2315/2415 31003MPS 9999 BKN030 BECMG 2400/2402 19006G13MPS BECMG 2406/2408 5000 -SHRA BKN020CB

Frequencies

Ground 121.70 MHz TAXIING
Approach 134.30 MHz APP
Tower 118.10 MHz TWR
Approach 124.70 MHz APP
Warning: Do not use this data for real-world aviation or navigation. No guarantee of current accuracy is given.